Time,TemperatureF,DewpointF,PressureIn,WindDirection,WindDirectionDegrees,WindSpeedMPH,WindSpeedGustMPH,Humidity,HourlyPrecipIn,Conditions,Clouds,dailyrainin,SoftwareType,DateUTC
2013-05-18 00:02:00,47.0,42.0,-100.00,WNW,287,7.0,10.0,84,-99.99,,,-99.99,,2013-05-18 06:02:00,
2013-05-18 00:11:00,46.0,42.0,-100.00,WNW,293,8.0,10.0,86,-99.99,,,-99.99,,2013-05-18 06:11:00,
2013-05-18 00:21:00,46.0,42.0,-100.00,WNW,300,5.0,7.0,87,-99.99,,,-99.99,,2013-05-18 06:21:00,
2013-05-18 00:31:00,46.0,42.0,-100.00,WNW,300,5.0,7.0,87,-99.99,,,-99.99,,2013-05-18 06:31:00,
2013-05-18 00:42:00,46.0,43.0,-100.00,NNW,344,2.0,5.0,88,-99.99,,,-99.99,,2013-05-18 06:42:00,
2013-05-18 00:51:00,46.0,43.0,-100.00,West,266,3.0,3.0,88,-99.99,,,-99.99,,2013-05-18 06:51:00,
2013-05-18 01:01:00,46.0,43.0,-100.00,West,266,3.0,3.0,88,-99.99,,,-99.99,,2013-05-18 07:01:00,
2013-05-18 01:11:00,46.0,43.0,-100.00,NW,318,4.0,5.0,89,-99.99,,,-99.99,,2013-05-18 07:11:00,
2013-05-18 01:21:00,45.0,42.0,-100.00,NW,305,8.0,11.0,89,-99.99,,,-99.99,,2013-05-18 07:21:00,
2013-05-18 01:31:00,45.0,42.0,-100.00,NW,305,8.0,11.0,89,-99.99,,,-99.99,,2013-05-18 07:31:00,
2013-05-18 01:42:00,44.0,41.0,-100.00,WNW,296,10.0,11.0,89,-99.99,,,-99.99,,2013-05-18 07:42:00,
2013-05-18 01:52:00,44.0,41.0,-100.00,WNW,296,7.0,10.0,88,-99.99,,,-99.99,,2013-05-18 07:52:00,
2013-05-18 02:01:00,44.0,41.0,-100.00,WNW,296,7.0,10.0,88,-99.99,,,-99.99,,2013-05-18 08:01:00,
2013-05-18 02:11:00,44.0,41.0,-100.00,NW,313,2.0,7.0,87,-99.99,,,-99.99,,2013-05-18 08:11:00,
2013-05-18 02:21:00,44.0,41.0,-100.00,WNW,298,5.0,7.0,87,-99.99,,,-99.99,,2013-05-18 08:21:00,
2013-05-18 02:32:00,44.0,41.0,-100.00,WNW,298,5.0,7.0,87,-99.99,,,-99.99,,2013-05-18 08:32:00,
2013-05-18 02:42:00,43.0,40.0,-100.00,NW,306,7.0,10.0,89,-99.99,,,-99.99,,2013-05-18 08:42:00,
2013-05-18 02:52:00,44.0,41.0,-100.00,NW,313,6.0,11.0,88,-99.99,,,-99.99,,2013-05-18 08:52:00,
2013-05-18 03:02:00,44.0,41.0,-100.00,NW,313,6.0,11.0,88,-99.99,,,-99.99,,2013-05-18 09:02:00,
2013-05-18 03:11:00,43.0,40.0,-100.00,NW,305,7.0,11.0,88,-99.99,,,-99.99,,2013-05-18 09:11:00,
2013-05-18 03:22:00,43.0,40.0,-100.00,WNW,290,8.0,9.0,88,-99.99,,,-99.99,,2013-05-18 09:22:00,
2013-05-18 03:32:00,43.0,40.0,-100.00,WNW,290,8.0,9.0,88,-99.99,,,-99.99,,2013-05-18 09:32:00,
2013-05-18 03:43:00,43.0,40.0,-100.00,WNW,284,9.0,12.0,90,-99.99,,,-99.99,,2013-05-18 09:43:00,
2013-05-18 03:53:00,43.0,40.0,-100.00,West,281,16.0,19.0,88,-99.99,,,-99.99,,2013-05-18 09:53:00,
2013-05-18 04:02:00,43.0,40.0,-100.00,West,281,16.0,19.0,88,-99.99,,,-99.99,,2013-05-18 10:02:00,
2013-05-18 04:12:00,42.0,39.0,-100.00,WNW,282,13.0,16.0,87,-99.99,,,-99.99,,2013-05-18 10:12:00,
2013-05-18 04:22:00,42.0,39.0,-100.00,West,280,10.0,15.0,88,-99.99,,,-99.99,,2013-05-18 10:22:00,
2013-05-18 04:33:00,42.0,39.0,-100.00,West,280,10.0,15.0,88,-99.99,,,-99.99,,2013-05-18 10:33:00,
2013-05-18 04:42:00,42.0,39.0,-100.00,WNW,288,11.0,14.0,89,-99.99,,,-99.99,,2013-05-18 10:42:00,
2013-05-18 04:52:00,41.0,38.0,-100.00,WNW,292,10.0,12.0,88,-99.99,,,-99.99,,2013-05-18 10:52:00,
2013-05-18 05:02:00,41.0,38.0,-100.00,WNW,292,10.0,12.0,88,-99.99,,,-99.99,,2013-05-18 11:02:00,
2013-05-18 05:12:00,41.0,38.0,-100.00,West,277,11.0,15.0,88,-99.99,,,-99.99,,2013-05-18 11:12:00,
2013-05-18 05:22:00,42.0,38.0,-100.00,West,279,11.0,13.0,88,-99.99,,,-99.99,,2013-05-18 11:22:00,
2013-05-18 05:33:00,42.0,38.0,-100.00,West,279,11.0,13.0,88,-99.99,,,-99.99,,2013-05-18 11:33:00,
2013-05-18 05:42:00,42.0,39.0,-100.00,WNW,284,8.0,12.0,88,-99.99,,,-99.99,,2013-05-18 11:42:00,
2013-05-18 05:52:00,42.0,39.0,-100.00,WNW,282,7.0,11.0,88,-99.99,,,-99.99,,2013-05-18 11:52:00,
2013-05-18 06:01:00,42.0,39.0,-100.00,WNW,282,7.0,11.0,88,-99.99,,,-99.99,,2013-05-18 12:01:00,
2013-05-18 06:12:00,42.0,39.0,-100.00,WNW,285,7.0,10.0,88,-99.99,,,-99.99,,2013-05-18 12:12:00,
2013-05-18 06:23:00,42.0,39.0,-100.00,WNW,286,7.0,9.0,89,-99.99,,,-99.99,,2013-05-18 12:23:00,
2013-05-18 06:33:00,42.0,39.0,-100.00,WNW,286,7.0,9.0,89,-99.99,,,-99.99,,2013-05-18 12:33:00,
2013-05-18 06:41:00,42.0,39.0,-100.00,WNW,289,6.0,9.0,89,-99.99,,,-99.99,,2013-05-18 12:41:00,
2013-05-18 06:51:00,42.0,39.0,-100.00,WNW,288,7.0,9.0,89,-99.99,,,-99.99,,2013-05-18 12:51:00,
2013-05-18 07:01:00,42.0,39.0,-100.00,WNW,288,7.0,9.0,89,-99.99,,,-99.99,,2013-05-18 13:01:00,
2013-05-18 07:11:00,41.0,39.0,-100.00,West,275,11.0,16.0,89,-99.99,,,-99.99,,2013-05-18 13:11:00,
2013-05-18 07:21:00,41.0,38.0,-100.00,WSW,241,8.0,13.0,87,-99.99,,,-99.99,,2013-05-18 13:21:00,
2013-05-18 07:33:00,41.0,38.0,-100.00,WSW,241,8.0,13.0,87,-99.99,,,-99.99,,2013-05-18 13:33:00,
2013-05-18 07:43:00,41.0,37.0,-100.00,WSW,252,6.0,7.0,85,-99.99,,,-99.99,,2013-05-18 13:43:00,
2013-05-18 07:52:00,41.0,37.0,-100.00,WSW,243,5.0,6.0,84,-99.99,,,-99.99,,2013-05-18 13:52:00,
2013-05-18 08:03:00,41.0,37.0,-100.00,WSW,243,5.0,6.0,84,-99.99,,,-99.99,,2013-05-18 14:03:00,
2013-05-18 08:12:00,42.0,38.0,-100.00,WSW,249,6.0,8.0,84,-99.99,,,-99.99,,2013-05-18 14:12:00,
2013-05-18 08:22:00,42.0,38.0,-100.00,WSW,241,6.0,10.0,83,-99.99,,,-99.99,,2013-05-18 14:22:00,
2013-05-18 08:32:00,42.0,38.0,-100.00,WSW,241,6.0,10.0,83,-99.99,,,-99.99,,2013-05-18 14:32:00,
2013-05-18 08:42:00,43.0,36.0,-100.00,WSW,244,4.0,12.0,78,-99.99,,,-99.99,,2013-05-18 14:42:00,
2013-05-18 08:50:00,44.0,39.0,-100.00,SW,235,5.0,8.0,81,-99.99,,,-99.99,,2013-05-18 14:50:00,
2013-05-18 08:54:00,43.0,37.0,-100.00,WNW,290,4.0,5.0,80,-99.99,,,-99.99,,2013-05-18 14:54:00,
2013-05-18 09:03:00,43.0,37.0,-100.00,WNW,290,4.0,5.0,80,-99.99,,,-99.99,,2013-05-18 15:03:00,
2013-05-18 09:13:00,43.0,38.0,-100.00,West,261,4.0,9.0,82,-99.99,,,-99.99,,2013-05-18 15:13:00,
2013-05-18 09:23:00,44.0,39.0,-100.00,SW,235,5.0,8.0,81,-99.99,,,-99.99,,2013-05-18 15:23:00,
2013-05-18 09:33:00,44.0,39.0,-100.00,SW,235,5.0,8.0,81,-99.99,,,-99.99,,2013-05-18 15:33:00,
2013-05-18 09:43:00,44.0,39.0,-100.00,SW,235,5.0,8.0,81,-99.99,,,-99.99,,2013-05-18 15:43:00,
2013-05-18 18:31:00,52.0,30.0,-100.00,WSW,253,12.0,17.0,43,-99.99,,,-99.99,,2013-05-19 00:31:00,
2013-05-18 18:41:00,52.0,30.0,-100.00,WSW,253,12.0,17.0,43,-99.99,,,-99.99,,2013-05-19 00:41:00,
2013-05-18 18:51:00,50.0,31.0,-100.00,West,265,14.0,22.0,48,-99.99,,,-99.99,,2013-05-19 00:51:00,
2013-05-18 19:01:00,50.0,31.0,-100.00,West,265,14.0,22.0,48,-99.99,,,-99.99,,2013-05-19 01:01:00,
2013-05-18 19:11:00,50.0,32.0,-100.00,West,262,15.0,18.0,50,-99.99,,,-99.99,,2013-05-19 01:11:00,
2013-05-18 19:21:00,49.0,32.0,-100.00,West,270,14.0,15.0,50,-99.99,,,-99.99,,2013-05-19 01:21:00,
2013-05-18 19:32:00,49.0,32.0,-100.00,West,270,14.0,15.0,50,-99.99,,,-99.99,,2013-05-19 01:32:00,
2013-05-18 19:41:00,49.0,32.0,-100.00,West,273,10.0,12.0,52,-99.99,,,-99.99,,2013-05-19 01:41:00,
2013-05-18 19:52:00,49.0,32.0,-100.00,West,270,11.0,13.0,53,-99.99,,,-99.99,,2013-05-19 01:52:00,
2013-05-18 20:01:00,49.0,32.0,-100.00,West,270,11.0,13.0,53,-99.99,,,-99.99,,2013-05-19 02:01:00,
2013-05-18 20:11:00,49.0,33.0,-100.00,West,271,9.0,12.0,54,-99.99,,,-99.99,,2013-05-19 02:11:00,
2013-05-18 20:21:00,49.0,33.0,-100.00,WNW,285,8.0,9.0,55,-99.99,,,-99.99,,2013-05-19 02:21:00,
2013-05-18 20:32:00,49.0,33.0,-100.00,WNW,285,8.0,9.0,55,-99.99,,,-99.99,,2013-05-19 02:32:00,
2013-05-18 20:42:00,48.0,33.0,-100.00,WNW,292,8.0,10.0,54,-99.99,,,-99.99,,2013-05-19 02:42:00,
2013-05-18 20:52:00,48.0,33.0,-100.00,WNW,293,7.0,11.0,56,-99.99,,,-99.99,,2013-05-19 02:52:00,
2013-05-18 21:01:00,48.0,33.0,-100.00,WNW,293,7.0,11.0,56,-99.99,,,-99.99,,2013-05-19 03:01:00,
2013-05-18 21:11:00,47.0,34.0,-100.00,NW,304,4.0,5.0,59,-99.99,,,-99.99,,2013-05-19 03:11:00,
2013-05-18 21:21:00,46.0,33.0,-100.00,NW,319,3.0,7.0,60,-99.99,,,-99.99,,2013-05-19 03:21:00,
2013-05-18 21:33:00,46.0,33.0,-100.00,NW,319,3.0,7.0,60,-99.99,,,-99.99,,2013-05-19 03:33:00,
2013-05-18 21:42:00,46.0,34.0,-100.00,WSW,248,3.0,4.0,62,-99.99,,,-99.99,,2013-05-19 03:42:00,
2013-05-18 21:53:00,44.0,34.0,-100.00,NW,309,3.0,4.0,66,-99.99,,,-99.99,,2013-05-19 03:53:00,
2013-05-18 22:02:00,44.0,34.0,-100.00,NW,309,3.0,4.0,66,-99.99,,,-99.99,,2013-05-19 04:02:00,
2013-05-18 22:12:00,43.0,34.0,-100.00,West,272,4.0,4.0,69,-99.99,,,-99.99,,2013-05-19 04:12:00,
2013-05-18 22:23:00,43.0,34.0,-100.00,WSW,253,4.0,5.0,69,-99.99,,,-99.99,,2013-05-19 04:23:00,
2013-05-18 22:33:00,43.0,34.0,-100.00,WSW,253,4.0,5.0,69,-99.99,,,-99.99,,2013-05-19 04:33:00,
2013-05-18 22:42:00,42.0,33.0,-100.00,NW,314,4.0,4.0,72,-99.99,,,-99.99,,2013-05-19 04:42:00,
2013-05-18 22:52:00,41.0,34.0,-100.00,WNW,290,5.0,5.0,73,-99.99,,,-99.99,,2013-05-19 04:52:00,
2013-05-18 23:02:00,41.0,34.0,-100.00,WNW,290,5.0,5.0,73,-99.99,,,-99.99,,2013-05-19 05:02:00,
2013-05-18 23:12:00,40.0,34.0,-100.00,West,277,4.0,5.0,77,-99.99,,,-99.99,,2013-05-19 05:12:00,
2013-05-18 23:21:00,40.0,34.0,-100.00,NW,307,3.0,4.0,77,-99.99,,,-99.99,,2013-05-19 05:21:00,
2013-05-18 23:32:00,40.0,34.0,-100.00,NW,307,3.0,4.0,77,-99.99,,,-99.99,,2013-05-19 05:32:00,
2013-05-18 23:42:00,39.0,34.0,-100.00,West,278,5.0,5.0,80,-99.99,,,-99.99,,2013-05-19 05:42:00,
2013-05-18 23:51:00,39.0,34.0,-100.00,West,273,5.0,5.0,79,-99.99,,,-99.99,,2013-05-19 05:51:00,